sensor_id;sensor_type;location;lat;lon;timestamp;P1;durP1;ratioP1;P2;durP2;ratioP2
45402;SDS011;47427;51.976;5.326;2023-02-27T00:00:30;10.23;;;7.00;;
45402;SDS011;47427;51.976;5.326;2023-02-27T00:04:01;12.02;;;6.55;;
45402;SDS011;47427;51.976;5.326;2023-02-27T00:07:34;9.68;;;6.43;;
45402;SDS011;47427;51.976;5.326;2023-02-27T00:11:03;9.55;;;6.53;;
45402;SDS011;47427;51.976;5.326;2023-02-27T00:14:37;9.07;;;6.65;;
45402;SDS011;47427;51.976;5.326;2023-02-27T00:18:09;11.02;;;7.13;;
45402;SDS011;47427;51.976;5.326;2023-02-27T00:21:52;12.32;;;6.78;;
45402;SDS011;47427;51.976;5.326;2023-02-27T00:25:45;14.10;;;6.22;;
45402;SDS011;47427;51.976;5.326;2023-02-27T00:29:20;9.68;;;6.20;;
45402;SDS011;47427;51.976;5.326;2023-02-27T00:32:52;8.60;;;6.10;;
45402;SDS011;47427;51.976;5.326;2023-02-27T00:36:17;11.45;;;6.32;;
45402;SDS011;47427;51.976;5.326;2023-02-27T00:44:05;9.70;;;6.65;;
45402;SDS011;47427;51.976;5.326;2023-02-27T00:47:36;9.63;;;7.25;;
45402;SDS011;47427;51.976;5.326;2023-02-27T00:51:02;10.70;;;6.10;;
45402;SDS011;47427;51.976;5.326;2023-02-27T00:54:36;9.15;;;6.22;;
45402;SDS011;47427;51.976;5.326;2023-02-27T01:08:34;8.10;;;5.55;;
45402;SDS011;47427;51.976;5.326;2023-02-27T01:12:02;11.27;;;6.68;;
45402;SDS011;47427;51.976;5.326;2023-02-27T01:15:59;9.75;;;5.78;;
45402;SDS011;47427;51.976;5.326;2023-02-27T01:19:32;8.90;;;6.65;;
45402;SDS011;47427;51.976;5.326;2023-02-27T01:23:23;10.40;;;5.97;;
45402;SDS011;47427;51.976;5.326;2023-02-27T01:27:07;10.75;;;5.85;;
45402;SDS011;47427;51.976;5.326;2023-02-27T01:30:41;13.10;;;7.82;;
45402;SDS011;47427;51.976;5.326;2023-02-27T01:34:13;8.50;;;6.28;;
45402;SDS011;47427;51.976;5.326;2023-02-27T01:37:36;14.00;;;5.93;;
45402;SDS011;47427;51.976;5.326;2023-02-27T01:41:19;8.98;;;6.18;;
45402;SDS011;47427;51.976;5.326;2023-02-27T01:48:35;9.77;;;6.45;;
45402;SDS011;47427;51.976;5.326;2023-02-27T01:52:20;15.65;;;6.50;;
45402;SDS011;47427;51.976;5.326;2023-02-27T01:55:45;16.90;;;6.50;;
45402;SDS011;47427;51.976;5.326;2023-02-27T01:59:23;9.52;;;6.53;;
45402;SDS011;47427;51.976;5.326;2023-02-27T02:03:19;11.38;;;6.00;;
45402;SDS011;47427;51.976;5.326;2023-02-27T02:07:23;11.18;;;6.20;;
45402;SDS011;47427;51.976;5.326;2023-02-27T02:10:47;11.68;;;8.00;;
45402;SDS011;47427;51.976;5.326;2023-02-27T02:14:13;7.83;;;6.23;;
45402;SDS011;47427;51.976;5.326;2023-02-27T02:34:18;11.43;;;6.22;;
45402;SDS011;47427;51.976;5.326;2023-02-27T02:47:01;12.07;;;5.90;;
45402;SDS011;47427;51.976;5.326;2023-02-27T02:59:10;9.07;;;6.18;;
45402;SDS011;47427;51.976;5.326;2023-02-27T03:02:52;7.38;;;6.68;;
45402;SDS011;47427;51.976;5.326;2023-02-27T03:06:23;8.13;;;6.47;;
45402;SDS011;47427;51.976;5.326;2023-02-27T03:13:46;9.38;;;6.13;;
45402;SDS011;47427;51.976;5.326;2023-02-27T03:25:58;11.68;;;5.90;;
45402;SDS011;47427;51.976;5.326;2023-02-27T03:29:41;11.30;;;6.00;;
45402;SDS011;47427;51.976;5.326;2023-02-27T03:33:24;10.82;;;5.68;;
45402;SDS011;47427;51.976;5.326;2023-02-27T03:48:49;8.05;;;5.32;;
45402;SDS011;47427;51.976;5.326;2023-02-27T03:52:13;10.07;;;5.55;;
45402;SDS011;47427;51.976;5.326;2023-02-27T03:55:41;11.05;;;6.22;;
45402;SDS011;47427;51.976;5.326;2023-02-27T04:02:59;9.07;;;5.70;;
45402;SDS011;47427;51.976;5.326;2023-02-27T04:06:27;10.40;;;5.68;;
45402;SDS011;47427;51.976;5.326;2023-02-27T04:10:25;9.30;;;6.10;;
45402;SDS011;47427;51.976;5.326;2023-02-27T04:14:42;10.38;;;5.57;;
45402;SDS011;47427;51.976;5.326;2023-02-27T04:18:32;6.22;;;5.55;;
45402;SDS011;47427;51.976;5.326;2023-02-27T04:22:57;8.15;;;6.15;;
45402;SDS011;47427;51.976;5.326;2023-02-27T04:29:50;6.03;;;5.47;;
45402;SDS011;47427;51.976;5.326;2023-02-27T04:33:51;9.35;;;5.72;;
45402;SDS011;47427;51.976;5.326;2023-02-27T04:41:56;9.02;;;5.05;;
45402;SDS011;47427;51.976;5.326;2023-02-27T04:45:32;9.02;;;5.57;;
45402;SDS011;47427;51.976;5.326;2023-02-27T04:49:56;8.65;;;5.18;;
45402;SDS011;47427;51.976;5.326;2023-02-27T04:53:27;10.23;;;5.45;;
45402;SDS011;47427;51.976;5.326;2023-02-27T04:57:04;7.13;;;5.70;;
45402;SDS011;47427;51.976;5.326;2023-02-27T05:00:36;6.25;;;5.65;;
45402;SDS011;47427;51.976;5.326;2023-02-27T05:04:02;10.43;;;5.88;;
45402;SDS011;47427;51.976;5.326;2023-02-27T05:07:40;11.93;;;6.90;;
45402;SDS011;47427;51.976;5.326;2023-02-27T05:11:30;10.68;;;6.25;;
45402;SDS011;47427;51.976;5.326;2023-02-27T05:15:02;10.55;;;6.80;;
45402;SDS011;47427;51.976;5.326;2023-02-27T05:18:58;13.50;;;6.93;;
45402;SDS011;47427;51.976;5.326;2023-02-27T05:22:27;7.80;;;6.15;;
45402;SDS011;47427;51.976;5.326;2023-02-27T05:30:50;10.27;;;5.90;;
45402;SDS011;47427;51.976;5.326;2023-02-27T05:34:33;9.13;;;6.93;;
45402;SDS011;47427;51.976;5.326;2023-02-27T05:38:08;8.63;;;6.35;;
45402;SDS011;47427;51.976;5.326;2023-02-27T05:42:08;8.10;;;6.32;;
45402;SDS011;47427;51.976;5.326;2023-02-27T05:45:45;10.23;;;6.80;;
45402;SDS011;47427;51.976;5.326;2023-02-27T05:49:17;9.90;;;7.43;;
45402;SDS011;47427;51.976;5.326;2023-02-27T05:53:08;12.68;;;6.90;;
45402;SDS011;47427;51.976;5.326;2023-02-27T05:56:35;9.60;;;7.28;;
45402;SDS011;47427;51.976;5.326;2023-02-27T06:04:03;10.73;;;7.53;;
45402;SDS011;47427;51.976;5.326;2023-02-27T06:07:35;15.05;;;7.72;;
45402;SDS011;47427;51.976;5.326;2023-02-27T06:11:05;13.88;;;8.93;;
45402;SDS011;47427;51.976;5.326;2023-02-27T06:14:47;16.63;;;8.60;;
45402;SDS011;47427;51.976;5.326;2023-02-27T06:18:20;14.88;;;9.02;;
45402;SDS011;47427;51.976;5.326;2023-02-27T06:25:51;13.18;;;9.40;;
45402;SDS011;47427;51.976;5.326;2023-02-27T06:29:20;20.67;;;11.02;;
45402;SDS011;47427;51.976;5.326;2023-02-27T06:32:47;17.73;;;10.77;;
45402;SDS011;47427;51.976;5.326;2023-02-27T06:36:21;20.35;;;10.65;;
45402;SDS011;47427;51.976;5.326;2023-02-27T06:39:48;19.13;;;10.52;;
45402;SDS011;47427;51.976;5.326;2023-02-27T06:43:23;17.80;;;10.10;;
45402;SDS011;47427;51.976;5.326;2023-02-27T06:47:01;17.10;;;9.25;;
45402;SDS011;47427;51.976;5.326;2023-02-27T06:50:25;17.25;;;9.02;;
45402;SDS011;47427;51.976;5.326;2023-02-27T06:53:53;14.23;;;8.40;;
45402;SDS011;47427;51.976;5.326;2023-02-27T06:57:20;15.98;;;9.02;;
45402;SDS011;47427;51.976;5.326;2023-02-27T07:00:42;15.02;;;9.60;;
45402;SDS011;47427;51.976;5.326;2023-02-27T07:04:23;12.40;;;8.65;;
45402;SDS011;47427;51.976;5.326;2023-02-27T07:07:47;15.45;;;10.20;;
45402;SDS011;47427;51.976;5.326;2023-02-27T07:11:12;20.02;;;9.63;;
45402;SDS011;47427;51.976;5.326;2023-02-27T07:14:38;17.65;;;11.50;;
45402;SDS011;47427;51.976;5.326;2023-02-27T07:18:01;18.23;;;11.40;;
45402;SDS011;47427;51.976;5.326;2023-02-27T07:21:23;18.13;;;10.85;;
45402;SDS011;47427;51.976;5.326;2023-02-27T07:24:46;16.40;;;9.95;;
45402;SDS011;47427;51.976;5.326;2023-02-27T07:28:15;19.85;;;11.88;;
45402;SDS011;47427;51.976;5.326;2023-02-27T07:31:47;14.15;;;12.52;;
45402;SDS011;47427;51.976;5.326;2023-02-27T07:35:12;16.05;;;12.65;;
45402;SDS011;47427;51.976;5.326;2023-02-27T07:38:33;17.45;;;11.52;;
45402;SDS011;47427;51.976;5.326;2023-02-27T07:41:58;11.02;;;8.52;;
45402;SDS011;47427;51.976;5.326;2023-02-27T07:45:26;12.63;;;8.60;;
45402;SDS011;47427;51.976;5.326;2023-02-27T07:48:49;16.98;;;8.73;;
45402;SDS011;47427;51.976;5.326;2023-02-27T07:52:16;12.02;;;9.38;;
45402;SDS011;47427;51.976;5.326;2023-02-27T07:55:40;10.73;;;9.02;;
45402;SDS011;47427;51.976;5.326;2023-02-27T07:59:29;14.73;;;7.55;;
45402;SDS011;47427;51.976;5.326;2023-02-27T08:02:57;12.82;;;8.75;;
45402;SDS011;47427;51.976;5.326;2023-02-27T08:06:31;15.10;;;9.38;;
45402;SDS011;47427;51.976;5.326;2023-02-27T08:09:55;12.02;;;8.80;;
45402;SDS011;47427;51.976;5.326;2023-02-27T08:13:16;12.75;;;8.27;;
45402;SDS011;47427;51.976;5.326;2023-02-27T08:16:40;10.43;;;8.52;;
45402;SDS011;47427;51.976;5.326;2023-02-27T08:20:03;11.00;;;7.60;;
45402;SDS011;47427;51.976;5.326;2023-02-27T08:23:28;15.10;;;7.63;;
45402;SDS011;47427;51.976;5.326;2023-02-27T08:26:59;12.93;;;6.95;;
45402;SDS011;47427;51.976;5.326;2023-02-27T08:30:21;13.07;;;7.65;;
45402;SDS011;47427;51.976;5.326;2023-02-27T08:34:04;10.10;;;7.03;;
45402;SDS011;47427;51.976;5.326;2023-02-27T08:41:09;11.15;;;6.43;;
45402;SDS011;47427;51.976;5.326;2023-02-27T08:44:32;7.75;;;6.22;;
45402;SDS011;47427;51.976;5.326;2023-02-27T08:47:56;10.63;;;6.72;;
45402;SDS011;47427;51.976;5.326;2023-02-27T08:51:20;10.65;;;6.22;;
45402;SDS011;47427;51.976;5.326;2023-02-27T08:54:44;16.52;;;7.35;;
45402;SDS011;47427;51.976;5.326;2023-02-27T08:58:06;24.48;;;15.00;;
45402;SDS011;47427;51.976;5.326;2023-02-27T09:01:42;12.15;;;8.88;;
45402;SDS011;47427;51.976;5.326;2023-02-27T09:05:08;25.83;;;13.95;;
45402;SDS011;47427;51.976;5.326;2023-02-27T09:08:42;17.55;;;10.73;;
45402;SDS011;47427;51.976;5.326;2023-02-27T09:12:35;22.30;;;10.70;;
45402;SDS011;47427;51.976;5.326;2023-02-27T09:16:06;12.77;;;9.73;;
45402;SDS011;47427;51.976;5.326;2023-02-27T09:19:28;26.02;;;17.75;;
45402;SDS011;47427;51.976;5.326;2023-02-27T09:22:49;18.67;;;15.00;;
45402;SDS011;47427;51.976;5.326;2023-02-27T09:26:17;10.52;;;7.75;;
45402;SDS011;47427;51.976;5.326;2023-02-27T09:29:46;16.48;;;12.30;;
45402;SDS011;47427;51.976;5.326;2023-02-27T09:33:17;11.57;;;7.85;;
45402;SDS011;47427;51.976;5.326;2023-02-27T09:36:41;10.88;;;8.27;;
45402;SDS011;47427;51.976;5.326;2023-02-27T09:40:02;9.40;;;7.30;;
45402;SDS011;47427;51.976;5.326;2023-02-27T09:47:03;8.07;;;6.97;;
45402;SDS011;47427;51.976;5.326;2023-02-27T09:50:41;10.68;;;8.45;;
45402;SDS011;47427;51.976;5.326;2023-02-27T09:54:09;13.63;;;6.78;;
45402;SDS011;47427;51.976;5.326;2023-02-27T10:01:54;8.52;;;6.53;;
45402;SDS011;47427;51.976;5.326;2023-02-27T10:06:27;7.93;;;6.35;;
45402;SDS011;47427;51.976;5.326;2023-02-27T10:14:11;6.47;;;5.80;;
45402;SDS011;47427;51.976;5.326;2023-02-27T10:18:03;9.32;;;5.88;;
45402;SDS011;47427;51.976;5.326;2023-02-27T10:21:54;7.18;;;5.75;;
45402;SDS011;47427;51.976;5.326;2023-02-27T10:25:31;6.68;;;4.90;;
45402;SDS011;47427;51.976;5.326;2023-02-27T10:29:14;7.07;;;4.88;;
45402;SDS011;47427;51.976;5.326;2023-02-27T10:33:00;9.27;;;5.80;;
45402;SDS011;47427;51.976;5.326;2023-02-27T10:36:51;6.90;;;5.13;;
45402;SDS011;47427;51.976;5.326;2023-02-27T10:40:24;8.07;;;5.18;;
45402;SDS011;47427;51.976;5.326;2023-02-27T10:44:08;5.70;;;5.10;;
45402;SDS011;47427;51.976;5.326;2023-02-27T10:47:51;8.07;;;4.72;;
45402;SDS011;47427;51.976;5.326;2023-02-27T10:51:31;7.03;;;4.28;;
45402;SDS011;47427;51.976;5.326;2023-02-27T10:55:15;7.67;;;5.10;;
45402;SDS011;47427;51.976;5.326;2023-02-27T10:59:22;6.95;;;5.38;;
45402;SDS011;47427;51.976;5.326;2023-02-27T11:02:51;8.27;;;6.00;;
45402;SDS011;47427;51.976;5.326;2023-02-27T11:06:20;7.07;;;4.63;;
45402;SDS011;47427;51.976;5.326;2023-02-27T11:09:57;5.50;;;4.80;;
45402;SDS011;47427;51.976;5.326;2023-02-27T11:13:43;19.08;;;16.13;;
45402;SDS011;47427;51.976;5.326;2023-02-27T11:17:08;51.92;;;28.08;;
45402;SDS011;47427;51.976;5.326;2023-02-27T11:24:44;19.75;;;12.23;;
45402;SDS011;47427;51.976;5.326;2023-02-27T11:28:22;24.10;;;12.68;;
45402;SDS011;47427;51.976;5.326;2023-02-27T11:31:59;39.60;;;20.67;;
45402;SDS011;47427;51.976;5.326;2023-02-27T11:35:40;56.67;;;25.63;;
45402;SDS011;47427;51.976;5.326;2023-02-27T11:39:02;35.63;;;18.52;;
45402;SDS011;47427;51.976;5.326;2023-02-27T11:42:31;19.43;;;12.30;;
45402;SDS011;47427;51.976;5.326;2023-02-27T11:46:07;7.57;;;6.72;;
45402;SDS011;47427;51.976;5.326;2023-02-27T11:49:56;5.70;;;3.75;;
45402;SDS011;47427;51.976;5.326;2023-02-27T11:58:18;7.38;;;6.65;;
45402;SDS011;47427;51.976;5.326;2023-02-27T12:02:24;5.95;;;5.35;;
45402;SDS011;47427;51.976;5.326;2023-02-27T12:05:53;5.97;;;5.30;;
45402;SDS011;47427;51.976;5.326;2023-02-27T12:13:20;5.15;;;4.75;;
45402;SDS011;47427;51.976;5.326;2023-02-27T12:17:05;5.10;;;4.60;;
45402;SDS011;47427;51.976;5.326;2023-02-27T12:24:49;5.18;;;4.78;;
45402;SDS011;47427;51.976;5.326;2023-02-27T12:28:30;6.30;;;4.68;;
45402;SDS011;47427;51.976;5.326;2023-02-27T12:32:42;4.97;;;4.57;;
45402;SDS011;47427;51.976;5.326;2023-02-27T12:36:34;5.18;;;4.78;;
45402;SDS011;47427;51.976;5.326;2023-02-27T12:39:57;5.30;;;4.95;;
45402;SDS011;47427;51.976;5.326;2023-02-27T12:43:32;4.80;;;4.50;;
45402;SDS011;47427;51.976;5.326;2023-02-27T12:54:55;4.97;;;4.68;;
45402;SDS011;47427;51.976;5.326;2023-02-27T13:05:59;4.90;;;4.70;;
45402;SDS011;47427;51.976;5.326;2023-02-27T13:10:33;5.75;;;5.28;;
45402;SDS011;47427;51.976;5.326;2023-02-27T13:14:24;4.20;;;3.90;;
45402;SDS011;47427;51.976;5.326;2023-02-27T13:22:22;4.97;;;4.60;;
45402;SDS011;47427;51.976;5.326;2023-02-27T13:26:34;5.72;;;5.40;;
45402;SDS011;47427;51.976;5.326;2023-02-27T13:34:15;4.20;;;3.90;;
45402;SDS011;47427;51.976;5.326;2023-02-27T13:38:00;13.48;;;11.70;;
45402;SDS011;47427;51.976;5.326;2023-02-27T13:41:45;18.23;;;13.77;;
45402;SDS011;47427;51.976;5.326;2023-02-27T13:49:46;27.52;;;20.45;;
45402;SDS011;47427;51.976;5.326;2023-02-27T13:53:14;9.10;;;8.20;;
45402;SDS011;47427;51.976;5.326;2023-02-27T13:57:22;6.93;;;6.30;;
45402;SDS011;47427;51.976;5.326;2023-02-27T14:04:54;5.70;;;5.13;;
45402;SDS011;47427;51.976;5.326;2023-02-27T14:08:26;4.93;;;4.53;;
45402;SDS011;47427;51.976;5.326;2023-02-27T14:11:59;6.45;;;5.85;;
45402;SDS011;47427;51.976;5.326;2023-02-27T14:15:49;6.30;;;5.80;;
45402;SDS011;47427;51.976;5.326;2023-02-27T14:19:26;7.13;;;5.43;;
45402;SDS011;47427;51.976;5.326;2023-02-27T14:26:36;5.85;;;5.28;;
45402;SDS011;47427;51.976;5.326;2023-02-27T14:30:17;4.97;;;4.57;;
45402;SDS011;47427;51.976;5.326;2023-02-27T14:33:56;5.15;;;4.78;;
45402;SDS011;47427;51.976;5.326;2023-02-27T14:37:26;4.75;;;4.32;;
45402;SDS011;47427;51.976;5.326;2023-02-27T14:40:55;5.17;;;4.77;;
45402;SDS011;47427;51.976;5.326;2023-02-27T14:45:14;5.82;;;5.25;;
45402;SDS011;47427;51.976;5.326;2023-02-27T14:48:51;4.95;;;4.45;;
45402;SDS011;47427;51.976;5.326;2023-02-27T14:52:44;24.75;;;15.57;;
45402;SDS011;47427;51.976;5.326;2023-02-27T14:56:30;17.67;;;12.20;;
45402;SDS011;47427;51.976;5.326;2023-02-27T15:00:27;6.88;;;5.43;;
45402;SDS011;47427;51.976;5.326;2023-02-27T15:04:01;7.80;;;6.47;;
45402;SDS011;47427;51.976;5.326;2023-02-27T15:07:31;8.40;;;5.82;;
45402;SDS011;47427;51.976;5.326;2023-02-27T15:11:16;5.05;;;4.57;;
45402;SDS011;47427;51.976;5.326;2023-02-27T15:15:01;5.75;;;4.55;;
45402;SDS011;47427;51.976;5.326;2023-02-27T15:18:33;5.25;;;4.78;;
45402;SDS011;47427;51.976;5.326;2023-02-27T15:22:18;6.13;;;5.53;;
45402;SDS011;47427;51.976;5.326;2023-02-27T15:25:59;6.30;;;4.88;;
45402;SDS011;47427;51.976;5.326;2023-02-27T15:29:21;7.15;;;5.72;;
45402;SDS011;47427;51.976;5.326;2023-02-27T15:32:46;5.43;;;4.97;;
45402;SDS011;47427;51.976;5.326;2023-02-27T15:36:30;4.93;;;4.50;;
45402;SDS011;47427;51.976;5.326;2023-02-27T15:39:58;4.60;;;4.30;;
45402;SDS011;47427;51.976;5.326;2023-02-27T15:43:30;10.35;;;7.75;;
45402;SDS011;47427;51.976;5.326;2023-02-27T15:47:05;21.42;;;13.93;;
45402;SDS011;47427;51.976;5.326;2023-02-27T15:50:36;19.48;;;11.55;;
45402;SDS011;47427;51.976;5.326;2023-02-27T15:54:50;8.52;;;6.03;;
45402;SDS011;47427;51.976;5.326;2023-02-27T15:58:29;10.35;;;7.90;;
45402;SDS011;47427;51.976;5.326;2023-02-27T16:02:03;16.02;;;11.93;;
45402;SDS011;47427;51.976;5.326;2023-02-27T16:05:37;9.70;;;8.77;;
45402;SDS011;47427;51.976;5.326;2023-02-27T16:09:03;8.45;;;6.95;;
45402;SDS011;47427;51.976;5.326;2023-02-27T16:13:18;20.10;;;12.43;;
45402;SDS011;47427;51.976;5.326;2023-02-27T16:17:19;11.27;;;7.30;;
45402;SDS011;47427;51.976;5.326;2023-02-27T16:21:10;15.10;;;8.30;;
45402;SDS011;47427;51.976;5.326;2023-02-27T16:24:45;8.20;;;5.82;;
45402;SDS011;47427;51.976;5.326;2023-02-27T16:28:11;12.32;;;5.97;;
45402;SDS011;47427;51.976;5.326;2023-02-27T16:31:47;30.83;;;15.85;;
45402;SDS011;47427;51.976;5.326;2023-02-27T16:38:41;19.20;;;10.82;;
45402;SDS011;47427;51.976;5.326;2023-02-27T16:42:16;18.58;;;12.18;;
45402;SDS011;47427;51.976;5.326;2023-02-27T16:45:38;16.05;;;10.95;;
45402;SDS011;47427;51.976;5.326;2023-02-27T16:49:34;17.80;;;9.82;;
45402;SDS011;47427;51.976;5.326;2023-02-27T16:52:58;20.67;;;12.25;;
45402;SDS011;47427;51.976;5.326;2023-02-27T16:56:33;23.90;;;13.38;;
45402;SDS011;47427;51.976;5.326;2023-02-27T17:00:09;12.63;;;8.55;;
45402;SDS011;47427;51.976;5.326;2023-02-27T17:03:39;15.43;;;9.50;;
45402;SDS011;47427;51.976;5.326;2023-02-27T17:07:03;14.73;;;9.52;;
45402;SDS011;47427;51.976;5.326;2023-02-27T17:10:37;9.05;;;7.03;;
45402;SDS011;47427;51.976;5.326;2023-02-27T17:14:01;14.55;;;9.18;;
45402;SDS011;47427;51.976;5.326;2023-02-27T17:17:32;14.18;;;9.30;;
45402;SDS011;47427;51.976;5.326;2023-02-27T17:20:53;10.40;;;6.80;;
45402;SDS011;47427;51.976;5.326;2023-02-27T17:24:26;9.95;;;7.78;;
45402;SDS011;47427;51.976;5.326;2023-02-27T17:27:51;14.85;;;9.52;;
45402;SDS011;47427;51.976;5.326;2023-02-27T17:31:17;11.02;;;7.25;;
45402;SDS011;47427;51.976;5.326;2023-02-27T17:34:58;15.25;;;9.70;;
45402;SDS011;47427;51.976;5.326;2023-02-27T17:38:30;10.40;;;8.50;;
45402;SDS011;47427;51.976;5.326;2023-02-27T17:41:52;7.65;;;6.40;;
45402;SDS011;47427;51.976;5.326;2023-02-27T17:45:15;7.38;;;5.50;;
45402;SDS011;47427;51.976;5.326;2023-02-27T17:48:43;5.55;;;5.05;;
45402;SDS011;47427;51.976;5.326;2023-02-27T17:52:07;6.00;;;5.07;;
45402;SDS011;47427;51.976;5.326;2023-02-27T17:56:06;7.18;;;6.47;;
45402;SDS011;47427;51.976;5.326;2023-02-27T17:59:48;8.98;;;6.40;;
45402;SDS011;47427;51.976;5.326;2023-02-27T18:03:11;15.82;;;10.05;;
45402;SDS011;47427;51.976;5.326;2023-02-27T18:06:36;14.52;;;8.52;;
45402;SDS011;47427;51.976;5.326;2023-02-27T18:10:01;21.40;;;12.40;;
45402;SDS011;47427;51.976;5.326;2023-02-27T18:13:29;31.50;;;16.50;;
45402;SDS011;47427;51.976;5.326;2023-02-27T18:16:52;43.42;;;20.58;;
45402;SDS011;47427;51.976;5.326;2023-02-27T18:20:15;35.30;;;18.60;;
45402;SDS011;47427;51.976;5.326;2023-02-27T18:23:49;32.28;;;15.90;;
45402;SDS011;47427;51.976;5.326;2023-02-27T18:27:29;34.90;;;19.10;;
45402;SDS011;47427;51.976;5.326;2023-02-27T18:34:57;13.20;;;8.98;;
45402;SDS011;47427;51.976;5.326;2023-02-27T18:38:21;10.85;;;8.27;;
45402;SDS011;47427;51.976;5.326;2023-02-27T18:41:43;37.42;;;20.55;;
45402;SDS011;47427;51.976;5.326;2023-02-27T18:45:09;26.83;;;14.88;;
45402;SDS011;47427;51.976;5.326;2023-02-27T18:48:45;27.92;;;15.95;;
45402;SDS011;47427;51.976;5.326;2023-02-27T18:52:10;16.48;;;11.13;;
45402;SDS011;47427;51.976;5.326;2023-02-27T18:55:35;20.92;;;13.30;;
45402;SDS011;47427;51.976;5.326;2023-02-27T18:59:09;28.90;;;13.90;;
45402;SDS011;47427;51.976;5.326;2023-02-27T19:02:31;17.58;;;12.45;;
45402;SDS011;47427;51.976;5.326;2023-02-27T19:05:53;14.60;;;9.50;;
45402;SDS011;47427;51.976;5.326;2023-02-27T19:09:24;10.13;;;8.10;;
45402;SDS011;47427;51.976;5.326;2023-02-27T19:13:06;10.82;;;7.85;;
45402;SDS011;47427;51.976;5.326;2023-02-27T19:16:36;12.15;;;8.75;;
45402;SDS011;47427;51.976;5.326;2023-02-27T19:20:01;12.38;;;8.18;;
45402;SDS011;47427;51.976;5.326;2023-02-27T19:23:26;13.45;;;8.48;;
45402;SDS011;47427;51.976;5.326;2023-02-27T19:26:47;13.68;;;8.45;;
45402;SDS011;47427;51.976;5.326;2023-02-27T19:30:09;10.52;;;7.05;;
45402;SDS011;47427;51.976;5.326;2023-02-27T19:33:31;8.98;;;7.65;;
45402;SDS011;47427;51.976;5.326;2023-02-27T19:36:54;9.15;;;7.30;;
45402;SDS011;47427;51.976;5.326;2023-02-27T19:40:24;11.30;;;7.30;;
45402;SDS011;47427;51.976;5.326;2023-02-27T19:43:50;11.48;;;7.18;;
45402;SDS011;47427;51.976;5.326;2023-02-27T19:47:13;10.65;;;6.57;;
45402;SDS011;47427;51.976;5.326;2023-02-27T19:50:46;11.20;;;7.03;;
45402;SDS011;47427;51.976;5.326;2023-02-27T19:54:12;7.68;;;6.88;;
45402;SDS011;47427;51.976;5.326;2023-02-27T19:57:55;7.90;;;6.55;;
45402;SDS011;47427;51.976;5.326;2023-02-27T20:01:39;7.82;;;7.03;;
45402;SDS011;47427;51.976;5.326;2023-02-27T20:05:05;8.75;;;7.40;;
45402;SDS011;47427;51.976;5.326;2023-02-27T20:08:32;9.68;;;6.55;;
45402;SDS011;47427;51.976;5.326;2023-02-27T20:11:58;7.55;;;6.75;;
45402;SDS011;47427;51.976;5.326;2023-02-27T20:15:24;7.53;;;6.93;;
45402;SDS011;47427;51.976;5.326;2023-02-27T20:19:09;77.70;;;36.33;;
45402;SDS011;47427;51.976;5.326;2023-02-27T20:22:35;79.97;;;34.80;;
45402;SDS011;47427;51.976;5.326;2023-02-27T20:26:18;98.85;;;39.90;;
45402;SDS011;47427;51.976;5.326;2023-02-27T20:29:50;75.57;;;35.45;;
45402;SDS011;47427;51.976;5.326;2023-02-27T20:33:17;64.50;;;31.73;;
45402;SDS011;47427;51.976;5.326;2023-02-27T20:36:38;36.00;;;20.75;;
45402;SDS011;47427;51.976;5.326;2023-02-27T20:40:03;41.88;;;21.60;;
45402;SDS011;47427;51.976;5.326;2023-02-27T20:43:27;32.08;;;16.88;;
45402;SDS011;47427;51.976;5.326;2023-02-27T20:46:56;26.95;;;13.95;;
45402;SDS011;47427;51.976;5.326;2023-02-27T20:50:24;29.83;;;14.27;;
45402;SDS011;47427;51.976;5.326;2023-02-27T20:54:03;18.57;;;10.20;;
45402;SDS011;47427;51.976;5.326;2023-02-27T20:57:35;14.50;;;9.23;;
45402;SDS011;47427;51.976;5.326;2023-02-27T21:01:12;9.98;;;8.20;;
45402;SDS011;47427;51.976;5.326;2023-02-27T21:04:55;12.93;;;8.63;;
45402;SDS011;47427;51.976;5.326;2023-02-27T21:08:17;10.00;;;7.85;;
45402;SDS011;47427;51.976;5.326;2023-02-27T21:11:42;14.77;;;8.68;;
45402;SDS011;47427;51.976;5.326;2023-02-27T21:18:44;12.00;;;8.35;;
45402;SDS011;47427;51.976;5.326;2023-02-27T21:22:08;12.75;;;8.07;;
45402;SDS011;47427;51.976;5.326;2023-02-27T21:25:32;9.20;;;7.78;;
45402;SDS011;47427;51.976;5.326;2023-02-27T21:29:04;11.93;;;7.53;;
45402;SDS011;47427;51.976;5.326;2023-02-27T21:32:44;7.25;;;6.50;;
45402;SDS011;47427;51.976;5.326;2023-02-27T21:36:08;9.43;;;6.47;;
45402;SDS011;47427;51.976;5.326;2023-02-27T21:39:34;12.60;;;6.75;;
45402;SDS011;47427;51.976;5.326;2023-02-27T21:43:02;7.22;;;6.53;;
45402;SDS011;47427;51.976;5.326;2023-02-27T21:46:37;8.63;;;6.57;;
45402;SDS011;47427;51.976;5.326;2023-02-27T21:50:08;8.55;;;6.15;;
45402;SDS011;47427;51.976;5.326;2023-02-27T21:53:46;10.70;;;6.47;;
45402;SDS011;47427;51.976;5.326;2023-02-27T21:57:28;7.85;;;6.43;;
45402;SDS011;47427;51.976;5.326;2023-02-27T22:00:50;8.18;;;7.28;;
45402;SDS011;47427;51.976;5.326;2023-02-27T22:04:14;14.02;;;7.18;;
45402;SDS011;47427;51.976;5.326;2023-02-27T22:07:46;16.90;;;11.77;;
45402;SDS011;47427;51.976;5.326;2023-02-27T22:11:22;36.35;;;18.67;;
45402;SDS011;47427;51.976;5.326;2023-02-27T22:18:26;21.73;;;12.23;;
45402;SDS011;47427;51.976;5.326;2023-02-27T22:25:33;20.27;;;11.25;;
45402;SDS011;47427;51.976;5.326;2023-02-27T22:29:00;15.43;;;9.77;;
45402;SDS011;47427;51.976;5.326;2023-02-27T22:32:22;14.90;;;9.40;;
45402;SDS011;47427;51.976;5.326;2023-02-27T22:35:49;11.98;;;8.63;;
45402;SDS011;47427;51.976;5.326;2023-02-27T22:39:31;12.05;;;8.05;;
45402;SDS011;47427;51.976;5.326;2023-02-27T22:43:01;22.17;;;11.38;;
45402;SDS011;47427;51.976;5.326;2023-02-27T22:46:37;16.95;;;10.25;;
45402;SDS011;47427;51.976;5.326;2023-02-27T22:50:35;24.30;;;12.25;;
45402;SDS011;47427;51.976;5.326;2023-02-27T22:54:20;30.55;;;14.80;;
45402;SDS011;47427;51.976;5.326;2023-02-27T22:58:10;21.77;;;12.18;;
45402;SDS011;47427;51.976;5.326;2023-02-27T23:01:34;15.38;;;9.68;;
45402;SDS011;47427;51.976;5.326;2023-02-27T23:04:57;14.73;;;8.98;;
45402;SDS011;47427;51.976;5.326;2023-02-27T23:08:21;10.68;;;7.90;;
45402;SDS011;47427;51.976;5.326;2023-02-27T23:11:51;13.15;;;8.40;;
45402;SDS011;47427;51.976;5.326;2023-02-27T23:15:20;9.52;;;7.70;;
45402;SDS011;47427;51.976;5.326;2023-02-27T23:19:02;6.80;;;6.05;;
45402;SDS011;47427;51.976;5.326;2023-02-27T23:22:41;10.95;;;7.28;;
45402;SDS011;47427;51.976;5.326;2023-02-27T23:26:06;8.95;;;7.75;;
45402;SDS011;47427;51.976;5.326;2023-02-27T23:29:31;13.45;;;7.43;;
45402;SDS011;47427;51.976;5.326;2023-02-27T23:32:59;8.93;;;6.20;;
45402;SDS011;47427;51.976;5.326;2023-02-27T23:36:41;7.20;;;6.60;;
45402;SDS011;47427;51.976;5.326;2023-02-27T23:40:07;7.47;;;6.75;;
45402;SDS011;47427;51.976;5.326;2023-02-27T23:44:25;11.07;;;7.32;;
45402;SDS011;47427;51.976;5.326;2023-02-27T23:48:15;8.30;;;7.30;;
45402;SDS011;47427;51.976;5.326;2023-02-27T23:52:08;8.50;;;6.53;;
45402;SDS011;47427;51.976;5.326;2023-02-27T23:55:37;11.32;;;7.35;;
45402;SDS011;47427;51.976;5.326;2023-02-27T23:59:07;9.18;;;7.05;;
